Time;durP1;ratioP1;P1;durP2;ratioP2;P2;SDS_P1;SDS_P2;PMS_P1;PMS_P2;Temp;Humidity;BMP_temperature;BMP_pressure;BME280_temperature;BME280_humidity;BME280_pressure;Samples;Min_cycle;Max_cycle;Signal;HPM_P1;HPM_P2
2024/02/24 00:01:05;;;;;;;5.57;3.00;;;4.40;68.70;;;;;;5073850;28;20599;-68
2024/02/24 00:03:32;;;;;;;4.95;2.60;;;4.50;68.50;;;;;;5073614;28;20717;-69
2024/02/24 00:06:00;;;;;;;4.90;3.05;;;4.50;67.60;;;;;;5073815;28;20605;-70
2024/02/24 00:08:29;;;;;;;6.95;3.47;;;4.40;67.00;;;;;;5073276;28;20210;-69
2024/02/24 00:10:56;;;;;;;5.78;3.05;;;4.40;67.20;;;;;;5073371;28;20194;-69
2024/02/24 00:13:23;;;;;;;6.55;3.45;;;4.30;67.30;;;;;;5073712;28;20190;-69
2024/02/24 00:15:50;;;;;;;6.55;3.90;;;4.20;67.80;;;;;;5073334;28;20226;-69
2024/02/24 00:18:18;;;;;;;9.35;3.55;;;4.20;68.10;;;;;;5073578;28;20580;-69
2024/02/24 00:20:45;;;;;;;5.78;3.13;;;4.20;68.20;;;;;;5073612;28;20186;-69
2024/02/24 00:23:15;;;;;;;7.40;3.47;;;4.20;68.40;;;;;;5073434;28;20198;-69
2024/02/24 00:25:42;;;;;;;4.40;3.97;;;4.20;68.30;;;;;;5073530;28;20217;-68
2024/02/24 00:28:10;;;;;;;5.40;3.53;;;4.20;68.20;;;;;;5073461;28;20268;-68
2024/02/24 00:30:37;;;;;;;5.20;2.88;;;4.20;68.10;;;;;;5073139;28;20860;-68
2024/02/24 00:33:04;;;;;;;6.03;3.45;;;4.10;68.70;;;;;;5073122;28;20247;-68
2024/02/24 00:35:31;;;;;;;4.60;3.10;;;4.10;69.50;;;;;;5073119;28;20665;-68
2024/02/24 00:37:59;;;;;;;6.07;3.28;;;4.00;69.60;;;;;;5073062;28;20198;-68
2024/02/24 00:40:27;;;;;;;5.47;3.25;;;4.00;69.60;;;;;;5072951;28;20602;-68
2024/02/24 00:42:54;;;;;;;6.00;3.28;;;4.00;69.50;;;;;;5072972;28;20309;-68
2024/02/24 00:45:21;;;;;;;10.70;5.03;;;4.00;69.50;;;;;;5073040;28;20194;-68
2024/02/24 00:47:48;;;;;;;4.30;3.45;;;4.00;69.90;;;;;;5073213;28;20242;-68
2024/02/24 00:50:15;;;;;;;7.88;2.97;;;4.00;70.00;;;;;;5072803;28;20182;-68
2024/02/24 00:52:42;;;;;;;5.65;2.90;;;4.10;70.00;;;;;;5073426;28;20589;-68
2024/02/24 00:55:10;;;;;;;6.90;3.53;;;4.10;70.00;;;;;;5073317;28;20281;-68
2024/02/24 00:57:38;;;;;;;5.93;3.70;;;4.00;69.60;;;;;;5073027;28;20193;-68
2024/02/24 01:00:06;;;;;;;4.15;2.67;;;4.00;70.00;;;;;;5073457;28;20186;-68
2024/02/24 01:02:33;;;;;;;3.95;2.20;;;4.00;70.30;;;;;;5072915;28;20279;-68
2024/02/24 01:05:01;;;;;;;3.85;2.75;;;4.00;70.20;;;;;;5073228;28;20641;-68
2024/02/24 01:07:28;;;;;;;6.45;2.70;;;4.00;69.90;;;;;;5072854;28;20224;-68
2024/02/24 01:09:54;;;;;;;4.18;2.92;;;3.90;69.90;;;;;;5072753;28;20253;-67
2024/02/24 01:12:23;;;;;;;4.03;2.95;;;3.90;69.80;;;;;;5073110;28;20255;-67
2024/02/24 01:14:53;;;;;;;4.38;2.40;;;4.00;69.70;;;;;;5073045;28;20599;-67
2024/02/24 01:17:20;;;;;;;2.85;1.60;;;3.90;69.30;;;;;;5072709;28;20179;-68
2024/02/24 01:19:47;;;;;;;3.85;2.40;;;3.90;69.30;;;;;;5072793;28;20573;-67
2024/02/24 01:22:14;;;;;;;3.53;1.70;;;3.90;68.80;;;;;;5072958;28;20314;-68
2024/02/24 01:24:41;;;;;;;3.17;1.90;;;3.80;68.80;;;;;;5072775;28;20525;-67
2024/02/24 01:27:08;;;;;;;3.22;1.80;;;3.80;69.00;;;;;;5072694;28;20194;-67
2024/02/24 01:29:35;;;;;;;2.92;1.35;;;3.80;69.40;;;;;;5075140;28;20781;-68
2024/02/24 01:32:04;;;;;;;3.22;1.67;;;3.80;69.00;;;;;;5076327;28;20225;-67
2024/02/24 01:34:31;;;;;;;3.50;1.65;;;3.70;68.90;;;;;;5076601;28;20190;-67
2024/02/24 01:36:58;;;;;;;5.57;2.88;;;3.70;68.90;;;;;;5076642;28;20185;-68
2024/02/24 01:39:25;;;;;;;4.80;2.83;;;3.70;69.00;;;;;;5076291;28;20336;-68
2024/02/24 01:41:52;;;;;;;5.40;2.58;;;3.60;69.80;;;;;;5076324;28;20265;-67
2024/02/24 01:44:19;;;;;;;4.40;1.52;;;3.50;70.20;;;;;;5076201;28;20226;-68
2024/02/24 01:46:46;;;;;;;6.10;2.50;;;3.50;70.70;;;;;;5076106;28;20653;-68
2024/02/24 01:49:16;;;;;;;4.05;2.40;;;3.50;70.70;;;;;;5075212;28;20245;-68
2024/02/24 01:51:46;;;;;;;3.00;1.60;;;3.40;70.90;;;;;;5076193;28;20240;-67
2024/02/24 01:54:14;;;;;;;3.45;2.05;;;3.50;70.90;;;;;;5075973;28;20648;-68
2024/02/24 01:56:43;;;;;;;3.22;1.63;;;3.50;70.40;;;;;;5076140;28;20285;-68
2024/02/24 01:59:11;;;;;;;4.05;1.30;;;3.40;69.90;;;;;;5075905;28;20187;-68
2024/02/24 02:01:38;;;;;;;2.63;1.50;;;3.40;70.40;;;;;;5076331;28;20217;-68
2024/02/24 02:04:06;;;;;;;3.10;1.67;;;3.40;69.90;;;;;;5075798;28;20282;-67
2024/02/24 02:06:35;;;;;;;2.50;1.17;;;3.40;69.50;;;;;;5075703;28;20671;-67
2024/02/24 02:09:02;;;;;;;3.95;1.50;;;3.30;69.40;;;;;;5075841;28;20248;-67
2024/02/24 02:11:29;;;;;;;2.40;1.00;;;3.30;69.90;;;;;;5076006;28;20622;-69
2024/02/24 02:13:57;;;;;;;3.00;1.50;;;3.30;70.10;;;;;;5075627;28;20232;-67
2024/02/24 02:16:24;;;;;;;3.40;1.40;;;3.30;70.40;;;;;;5075549;28;20202;-67
2024/02/24 02:18:51;;;;;;;5.00;1.95;;;3.30;70.50;;;;;;5075580;28;20194;-67
2024/02/24 02:21:20;;;;;;;4.18;1.23;;;3.30;69.90;;;;;;5075486;28;20213;-67
2024/02/24 02:23:49;;;;;;;2.40;1.30;;;3.30;69.10;;;;;;5075728;28;20273;-67
2024/02/24 02:26:18;;;;;;;2.50;1.25;;;3.20;68.60;;;;;;5075352;28;20190;-67
2024/02/24 02:28:45;;;;;;;2.33;1.05;;;3.20;68.80;;;;;;5075204;28;20256;-67
2024/02/24 02:31:12;;;;;;;3.42;1.25;;;3.10;69.30;;;;;;5074440;28;20275;-67
2024/02/24 02:33:39;;;;;;;2.67;1.30;;;3.20;70.00;;;;;;5074001;28;20377;-67
2024/02/24 02:36:07;;;;;;;2.78;1.48;;;3.10;70.30;;;;;;5075446;28;20228;-67
2024/02/24 02:38:34;;;;;;;3.17;1.40;;;3.10;70.60;;;;;;5075080;28;20194;-67
2024/02/24 02:41:02;;;;;;;2.45;1.20;;;3.10;70.30;;;;;;5074154;28;20602;-67
2024/02/24 02:43:29;;;;;;;2.60;1.20;;;3.20;69.80;;;;;;5074316;28;20312;-67
2024/02/24 02:45:56;;;;;;;2.70;1.50;;;3.10;68.90;;;;;;5075139;28;20589;-67
2024/02/24 02:48:23;;;;;;;3.65;1.48;;;3.10;68.60;;;;;;5075381;28;20303;-67
2024/02/24 02:50:50;;;;;;;3.03;1.40;;;3.10;68.70;;;;;;5074912;28;20210;-67
2024/02/24 02:53:17;;;;;;;3.25;2.17;;;3.10;68.90;;;;;;5074045;28;20236;-67
2024/02/24 02:55:44;;;;;;;3.15;1.30;;;3.00;68.90;;;;;;5074749;28;20252;-68
2024/02/24 02:58:13;;;;;;;3.40;1.80;;;3.00;68.80;;;;;;5074665;28;20190;-67
2024/02/24 03:00:41;;;;;;;3.45;1.67;;;3.00;68.40;;;;;;5075010;28;20266;-67
2024/02/24 03:03:08;;;;;;;6.40;2.53;;;2.90;68.60;;;;;;5074959;28;20591;-67
2024/02/24 03:05:34;;;;;;;3.55;1.85;;;2.90;68.80;;;;;;5074582;28;20327;-67
2024/02/24 03:08:02;;;;;;;3.83;2.35;;;2.80;68.50;;;;;;5074895;28;20256;-67
2024/02/24 03:10:29;;;;;;;2.70;1.45;;;2.80;68.50;;;;;;5074424;28;20221;-67
2024/02/24 03:12:57;;;;;;;4.25;2.38;;;2.80;67.10;;;;;;5074502;28;20584;-67
2024/02/24 03:15:25;;;;;;;4.90;1.27;;;2.70;66.30;;;;;;5074351;28;20190;-67
2024/02/24 03:17:52;;;;;;;3.35;1.40;;;2.60;66.00;;;;;;5074307;28;20220;-67
2024/02/24 03:20:19;;;;;;;3.17;1.90;;;2.50;65.10;;;;;;5074086;28;20252;-67
2024/02/24 03:22:46;;;;;;;3.35;2.00;;;2.50;66.10;;;;;;5074555;28;20186;-67
2024/02/24 03:25:13;;;;;;;3.90;1.73;;;2.40;67.10;;;;;;5074512;28;20244;-67
2024/02/24 03:27:40;;;;;;;2.97;1.20;;;2.40;68.10;;;;;;5074459;28;20222;-67
2024/02/24 03:30:08;;;;;;;2.45;1.38;;;2.40;68.50;;;;;;5074379;28;20304;-67
2024/02/24 03:32:37;;;;;;;4.60;1.30;;;2.30;68.50;;;;;;5071756;28;20865;-68
2024/02/24 03:35:04;;;;;;;4.05;1.33;;;2.30;69.00;;;;;;5073811;28;20654;-68
2024/02/24 03:37:31;;;;;;;2.70;1.38;;;2.30;69.50;;;;;;5074023;28;20232;-68
2024/02/24 03:39:59;;;;;;;2.30;1.10;;;2.40;70.00;;;;;;5074289;28;20237;-67
2024/02/24 03:42:25;;;;;;;4.03;1.77;;;2.30;69.80;;;;;;5073082;28;20214;-67
2024/02/24 03:44:53;;;;;;;4.07;2.53;;;2.40;69.50;;;;;;5073885;28;20656;-67
2024/02/24 03:47:20;;;;;;;6.72;1.73;;;2.30;69.30;;;;;;5073188;28;20217;-67
2024/02/24 03:49:48;;;;;;;4.53;2.08;;;2.40;69.60;;;;;;5073696;28;20217;-67
2024/02/24 03:52:15;;;;;;;5.95;2.00;;;2.30;69.30;;;;;;5073232;28;20268;-67
2024/02/24 03:54:42;;;;;;;3.85;2.00;;;2.30;69.50;;;;;;5074083;28;20595;-67
2024/02/24 03:57:09;;;;;;;3.55;1.60;;;2.30;70.00;;;;;;5074020;28;20552;-67
2024/02/24 03:59:36;;;;;;;4.38;1.45;;;2.30;70.10;;;;;;5073871;28;20247;-68
2024/02/24 04:02:03;;;;;;;3.35;1.92;;;2.30;70.20;;;;;;5073852;28;20267;-68
2024/02/24 04:04:30;;;;;;;2.72;1.48;;;2.30;70.20;;;;;;5073528;28;20230;-69
2024/02/24 04:06:58;;;;;;;3.80;1.52;;;2.30;69.80;;;;;;5073752;28;20255;-68
2024/02/24 04:09:26;;;;;;;2.78;1.20;;;2.30;69.20;;;;;;5073806;28;20632;-67
2024/02/24 04:11:53;;;;;;;2.45;1.10;;;2.30;69.20;;;;;;5073519;28;20182;-67
2024/02/24 04:14:20;;;;;;;2.90;1.15;;;2.30;69.10;;;;;;5073536;28;20190;-68
2024/02/24 04:16:47;;;;;;;3.47;1.60;;;2.30;68.90;;;;;;5073546;28;20289;-67
2024/02/24 04:19:14;;;;;;;2.30;1.10;;;2.40;69.20;;;;;;5073628;28;20237;-67
2024/02/24 04:21:40;;;;;;;2.20;0.85;;;2.40;68.60;;;;;;5073266;28;20194;-67
2024/02/24 04:24:09;;;;;;;2.38;1.00;;;2.50;68.90;;;;;;5073833;28;20194;-67
2024/02/24 04:26:36;;;;;;;2.20;0.95;;;2.40;68.90;;;;;;5073715;28;20273;-68
2024/02/24 04:29:03;;;;;;;2.58;1.30;;;2.40;69.40;;;;;;5073185;28;20741;-68
2024/02/24 04:31:30;;;;;;;2.75;1.50;;;2.30;69.40;;;;;;5073485;28;20218;-68
2024/02/24 04:33:57;;;;;;;2.75;0.90;;;2.30;69.40;;;;;;5072535;28;20607;-68
2024/02/24 04:36:24;;;;;;;2.95;1.40;;;2.30;69.40;;;;;;5073624;28;20190;-68
2024/02/24 04:38:51;;;;;;;2.55;1.20;;;2.30;69.80;;;;;;5073943;28;20194;-68
2024/02/24 04:41:19;;;;;;;2.97;1.40;;;2.20;69.80;;;;;;5073000;28;20217;-68
2024/02/24 04:43:46;;;;;;;4.28;0.93;;;2.30;70.10;;;;;;5073376;28;20259;-68
2024/02/24 04:46:13;;;;;;;2.78;1.23;;;2.30;70.10;;;;;;5073042;28;20190;-68
2024/02/24 04:48:42;;;;;;;4.80;2.15;;;2.20;70.10;;;;;;5073358;28;20194;-68
2024/02/24 04:51:10;;;;;;;3.42;1.40;;;2.20;70.30;;;;;;5073571;28;20189;-68
2024/02/24 04:53:37;;;;;;;2.70;1.40;;;2.20;70.00;;;;;;5073039;28;20635;-68
2024/02/24 04:56:04;;;;;;;3.08;2.05;;;2.20;69.20;;;;;;5073245;28;20190;-68
2024/02/24 04:58:33;;;;;;;2.80;1.60;;;2.20;67.70;;;;;;5073572;28;20205;-68
2024/02/24 05:00:59;;;;;;;3.03;1.45;;;2.20;65.40;;;;;;5073103;28;20594;-68
2024/02/24 05:03:27;;;;;;;3.28;1.65;;;2.10;65.20;;;;;;5073552;28;20277;-68
2024/02/24 05:05:54;;;;;;;4.13;1.98;;;2.00;65.50;;;;;;5076823;28;20252;-68
2024/02/24 05:08:21;;;;;;;2.95;1.55;;;1.90;66.10;;;;;;5076796;28;20229;-68
2024/02/24 05:10:48;;;;;;;5.70;1.73;;;1.80;66.90;;;;;;5076296;28;20305;-68
2024/02/24 05:13:15;;;;;;;3.13;1.70;;;1.80;67.10;;;;;;5077067;28;20201;-68
2024/02/24 05:15:43;;;;;;;4.70;2.05;;;1.80;67.80;;;;;;5076925;28;20293;-68
2024/02/24 05:18:10;;;;;;;2.83;1.50;;;1.80;68.20;;;;;;5076848;28;20201;-68
2024/02/24 05:20:40;;;;;;;3.03;1.45;;;1.70;68.60;;;;;;5075815;28;20186;-68
2024/02/24 05:23:07;;;;;;;2.95;1.45;;;1.70;68.70;;;;;;5076798;28;20190;-68
2024/02/24 05:25:34;;;;;;;2.58;1.20;;;1.70;68.40;;;;;;5076733;28;20198;-68
2024/02/24 05:28:01;;;;;;;4.82;1.70;;;1.70;68.70;;;;;;5076741;28;20205;-68
2024/02/24 05:30:28;;;;;;;2.60;1.30;;;1.70;68.60;;;;;;5076288;28;20246;-68
2024/02/24 05:32:56;;;;;;;3.05;1.20;;;1.70;69.10;;;;;;5076168;28;20705;-68
2024/02/24 05:35:23;;;;;;;5.15;2.10;;;1.70;69.50;;;;;;5076610;28;20208;-68
2024/02/24 05:37:50;;;;;;;2.85;1.67;;;1.70;69.80;;;;;;5076865;28;20617;-68
2024/02/24 05:40:17;;;;;;;2.50;1.27;;;1.70;70.00;;;;;;5076430;28;20248;-68
2024/02/24 05:42:45;;;;;;;2.60;1.42;;;1.70;69.60;;;;;;5075977;28;20229;-68
2024/02/24 05:45:12;;;;;;;4.10;2.42;;;1.70;68.60;;;;;;5076365;28;20559;-68
2024/02/24 05:47:39;;;;;;;5.60;2.75;;;1.70;68.20;;;;;;5076558;28;20194;-68
2024/02/24 05:50:08;;;;;;;6.20;3.22;;;1.70;68.30;;;;;;5076069;28;20304;-68
2024/02/24 05:52:35;;;;;;;7.95;5.10;;;1.60;68.30;;;;;;5075982;28;20190;-68
2024/02/24 05:55:04;;;;;;;14.13;9.48;;;1.60;69.30;;;;;;5075916;28;20644;-68
2024/02/24 05:57:31;;;;;;;11.13;8.07;;;1.60;69.80;;;;;;5076171;28;20198;-68
2024/02/24 05:59:59;;;;;;;12.95;7.95;;;1.60;70.30;;;;;;5076359;28;20715;-68
2024/02/24 06:02:26;;;;;;;6.22;4.13;;;1.50;70.20;;;;;;5075631;28;20640;-68
2024/02/24 06:04:53;;;;;;;2.63;1.33;;;1.60;70.30;;;;;;5076139;28;20190;-68
2024/02/24 06:07:22;;;;;;;3.38;1.27;;;1.60;69.00;;;;;;5076038;28;20256;-68
2024/02/24 06:09:49;;;;;;;2.53;1.40;;;1.60;68.00;;;;;;5075568;28;20212;-68
2024/02/24 06:12:16;;;;;;;4.25;2.55;;;1.60;67.50;;;;;;5075195;28;20676;-69
2024/02/24 06:14:43;;;;;;;2.65;1.60;;;1.50;67.50;;;;;;5074379;28;20281;-68
2024/02/24 06:17:10;;;;;;;2.75;1.50;;;1.50;67.30;;;;;;5075365;28;20247;-68
2024/02/24 06:19:37;;;;;;;3.15;1.77;;;1.50;67.30;;;;;;5075257;28;20194;-68
2024/02/24 06:22:05;;;;;;;3.78;2.20;;;1.50;67.50;;;;;;5075620;28;20186;-68
2024/02/24 06:24:33;;;;;;;3.70;1.88;;;1.50;67.90;;;;;;5075131;28;20194;-68
2024/02/24 06:27:00;;;;;;;3.08;1.85;;;1.50;67.60;;;;;;5075573;28;20282;-68
2024/02/24 06:29:27;;;;;;;3.70;1.50;;;1.50;67.70;;;;;;5075030;28;20221;-68
2024/02/24 06:31:54;;;;;;;3.15;1.70;;;1.50;68.10;;;;;;5074124;28;20206;-68
2024/02/24 06:34:22;;;;;;;3.45;1.55;;;1.50;67.70;;;;;;5074926;28;20197;-68
2024/02/24 06:36:49;;;;;;;2.67;1.50;;;1.60;67.60;;;;;;5074870;28;20244;-68
2024/02/24 06:39:16;;;;;;;3.20;1.55;;;1.70;68.00;;;;;;5075297;28;20197;-68
2024/02/24 06:41:44;;;;;;;2.38;1.30;;;1.80;68.70;;;;;;5074459;28;20246;-68
2024/02/24 06:44:11;;;;;;;4.30;2.05;;;1.80;69.10;;;;;;5074491;28;20174;-68
2024/02/24 06:46:38;;;;;;;3.80;2.50;;;1.90;69.50;;;;;;5074942;28;20216;-68
2024/02/24 06:49:06;;;;;;;5.07;3.17;;;2.00;70.40;;;;;;5074853;28;20222;-68
2024/02/24 06:51:32;;;;;;;3.40;1.50;;;2.10;70.70;;;;;;5074920;28;20198;-68
2024/02/24 06:53:59;;;;;;;2.40;1.33;;;2.20;70.00;;;;;;5074887;28;20645;-68
2024/02/24 06:56:26;;;;;;;3.05;1.50;;;2.20;70.30;;;;;;5074890;28;20275;-68
2024/02/24 06:58:55;;;;;;;2.95;1.90;;;2.30;70.60;;;;;;5074453;28;20186;-68
2024/02/24 07:01:22;;;;;;;3.15;1.92;;;2.40;70.50;;;;;;5074197;28;20213;-68
2024/02/24 07:03:49;;;;;;;3.47;1.85;;;2.60;70.70;;;;;;5074682;28;20217;-68
2024/02/24 07:06:18;;;;;;;3.10;1.58;;;2.80;70.50;;;;;;5074531;28;20225;-68
2024/02/24 07:08:50;;;;;;;2.90;1.73;;;3.00;70.50;;;;;;5074292;28;20641;-68
2024/02/24 07:11:17;;;;;;;3.25;1.88;;;3.30;70.60;;;;;;5074122;28;20234;-68
2024/02/24 07:13:44;;;;;;;2.83;1.70;;;3.60;69.90;;;;;;5074008;28;20194;-68
2024/02/24 07:16:13;;;;;;;2.70;1.58;;;3.90;69.60;;;;;;5074335;28;20190;-68
2024/02/24 07:18:40;;;;;;;3.00;1.65;;;4.40;68.70;;;;;;5074033;28;20190;-69
2024/02/24 07:21:07;;;;;;;2.97;1.63;;;4.80;67.40;;;;;;5073931;28;20281;-68
2024/02/24 07:23:34;;;;;;;5.97;2.08;;;5.20;66.10;;;;;;5074395;28;20591;-68
2024/02/24 07:26:02;;;;;;;2.95;1.50;;;5.60;65.30;;;;;;5073520;28;20198;-69
2024/02/24 07:28:30;;;;;;;2.92;1.80;;;6.10;64.30;;;;;;5074225;28;20608;-69
2024/02/24 07:30:57;;;;;;;4.88;2.50;;;6.50;63.00;;;;;;5073866;28;20249;-69
2024/02/24 07:33:25;;;;;;;5.93;2.75;;;7.10;59.60;;;;;;5053803;28;20645;-69
2024/02/24 07:35:52;;;;;;;4.47;2.90;;;7.50;58.40;;;;;;5054020;28;20366;-69
2024/02/24 07:38:19;;;;;;;6.47;3.45;;;7.80;57.40;;;;;;5065496;28;20218;-69
2024/02/24 07:40:46;;;;;;;17.63;9.35;;;8.30;56.80;;;;;;5073980;28;20550;-69
2024/02/24 07:43:14;;;;;;;6.13;3.35;;;8.70;55.80;;;;;;5072596;28;20222;-69
2024/02/24 07:45:40;;;;;;;4.65;2.70;;;9.10;55.30;;;;;;5073669;28;20221;-68
2024/02/24 07:48:08;;;;;;;2.50;1.45;;;9.50;53.30;;;;;;5072669;28;20213;-67
2024/02/24 07:50:36;;;;;;;2.53;1.42;;;9.90;51.90;;;;;;5071189;28;20226;-68
2024/02/24 07:53:04;;;;;;;2.85;1.40;;;10.40;51.30;;;;;;5071261;28;20640;-68
2024/02/24 07:55:31;;;;;;;2.53;1.20;;;10.90;49.50;;;;;;5071069;28;20185;-68
2024/02/24 07:57:58;;;;;;;2.45;1.25;;;11.40;49.40;;;;;;5072288;28;20261;-68
2024/02/24 08:00:26;;;;;;;3.70;1.90;;;11.90;47.40;;;;;;5073081;28;20280;-68
2024/02/24 08:02:52;;;;;;;2.60;1.23;;;12.30;45.70;;;;;;5071246;28;20281;-69
2024/02/24 08:05:20;;;;;;;3.50;1.43;;;12.70;44.60;;;;;;5072522;28;21030;-69
2024/02/24 08:07:49;;;;;;;2.70;1.70;;;13.10;43.90;;;;;;5073049;28;20535;-69
2024/02/24 08:10:16;;;;;;;4.80;1.50;;;13.60;42.90;;;;;;5072710;28;20510;-69
2024/02/24 08:12:43;;;;;;;2.60;1.30;;;14.00;42.60;;;;;;5072563;28;20910;-69
2024/02/24 08:15:15;;;;;;;2.83;1.13;;;14.40;41.00;;;;;;5072610;28;20467;-69
2024/02/24 08:17:42;;;;;;;2.50;1.37;;;14.80;39.90;;;;;;5072992;28;20503;-70
2024/02/24 08:20:10;;;;;;;2.83;1.30;;;15.30;38.50;;;;;;5072177;28;20823;-69
2024/02/24 08:22:39;;;;;;;2.40;1.20;;;15.60;37.20;;;;;;5071975;28;20432;-70
2024/02/24 08:25:08;;;;;;;2.10;0.90;;;16.00;35.10;;;;;;5068341;28;20471;-69
2024/02/24 08:27:35;;;;;;;4.10;1.17;;;16.30;33.90;;;;;;5083566;28;20776;-69
2024/02/24 08:30:02;;;;;;;2.33;1.10;;;16.30;32.70;;;;;;5082222;28;20482;-70
2024/02/24 08:32:29;;;;;;;2.87;0.87;;;16.00;32.40;;;;;;5072341;28;20428;-69
2024/02/24 08:34:56;;;;;;;2.00;0.70;;;15.50;32.30;;;;;;5072164;28;20996;-69
2024/02/24 08:37:23;;;;;;;2.50;0.77;;;15.50;32.30;;;;;;5071609;28;20787;-69
2024/02/24 08:39:50;;;;;;;1.93;1.10;;;15.70;32.70;;;;;;5075373;28;20438;-69
2024/02/24 08:42:18;;;;;;;2.43;1.10;;;16.10;33.10;;;;;;5076702;28;20548;-70
2024/02/24 08:44:46;;;;;;;3.03;1.40;;;16.70;31.80;;;;;;5076659;28;20439;-70
2024/02/24 08:47:13;;;;;;;3.83;1.23;;;17.20;30.50;;;;;;5076353;28;20441;-70
2024/02/24 08:49:39;;;;;;;2.23;1.10;;;17.40;31.40;;;;;;5075956;28;20429;-69
2024/02/24 08:52:07;;;;;;;2.50;1.30;;;17.40;29.10;;;;;;5075540;28;20461;-69
2024/02/24 08:54:34;;;;;;;2.70;1.33;;;17.30;30.00;;;;;;5076596;28;20520;-69
2024/02/24 08:57:01;;;;;;;5.90;1.43;;;17.40;30.60;;;;;;5076430;28;20433;-69
2024/02/24 08:59:30;;;;;;;4.60;2.47;;;17.70;30.20;;;;;;5076439;28;20431;-69
2024/02/24 09:01:57;;;;;;;2.83;1.30;;;18.10;30.00;;;;;;5075874;28;20534;-69
2024/02/24 09:04:24;;;;;;;2.20;0.97;;;18.30;29.40;;;;;;5076136;28;20519;-68
2024/02/24 09:06:51;;;;;;;2.00;0.90;;;18.40;29.10;;;;;;5076198;28;20518;-67
2024/02/24 09:09:22;;;;;;;3.00;1.27;;;18.70;29.00;;;;;;5075922;28;20477;-68
2024/02/24 09:11:50;;;;;;;2.50;1.17;;;18.90;28.10;;;;;;5075205;28;20513;-68
2024/02/24 09:14:17;;;;;;;2.63;1.00;;;19.10;28.60;;;;;;5075650;28;20510;-68
2024/02/24 09:16:45;;;;;;;3.50;1.37;;;19.30;28.20;;;;;;5074984;28;20927;-69
2024/02/24 09:19:12;;;;;;;2.60;1.10;;;19.40;28.70;;;;;;5075704;28;20432;-71
2024/02/24 09:21:39;;;;;;;2.30;0.80;;;19.70;28.20;;;;;;5076130;28;20877;-68
2024/02/24 09:24:06;;;;;;;3.43;0.80;;;20.00;28.50;;;;;;5075797;28;20485;-70
2024/02/24 09:26:33;;;;;;;2.50;1.07;;;20.40;28.10;;;;;;5076057;28;20436;-70
2024/02/24 09:29:00;;;;;;;3.90;1.40;;;20.70;27.60;;;;;;5075291;28;20460;-69
2024/02/24 09:31:28;;;;;;;4.63;1.03;;;20.80;26.50;;;;;;5075697;28;20503;-71
2024/02/24 09:33:57;;;;;;;2.90;0.90;;;20.90;26.60;;;;;;5075481;28;20914;-70
2024/02/24 09:36:24;;;;;;;2.67;1.00;;;20.90;25.80;;;;;;5076166;28;20439;-69
2024/02/24 09:38:51;;;;;;;3.70;1.57;;;20.90;25.40;;;;;;5075820;28;20767;-69
2024/02/24 09:41:19;;;;;;;2.67;1.20;;;21.10;26.30;;;;;;5075503;28;20497;-70
2024/02/24 09:43:46;;;;;;;2.03;0.70;;;21.30;25.80;;;;;;5074616;28;20424;-70
2024/02/24 09:46:16;;;;;;;2.03;0.80;;;21.50;24.60;;;;;;5075013;28;20432;-70
2024/02/24 09:48:46;;;;;;;2.43;1.00;;;21.60;24.80;;;;;;5074972;28;20521;-69
2024/02/24 09:51:14;;;;;;;2.83;1.10;;;21.60;25.70;;;;;;5074051;28;20459;-71
2024/02/24 09:53:42;;;;;;;3.03;1.10;;;21.50;25.20;;;;;;5075031;28;20443;-70
2024/02/24 09:56:10;;;;;;;2.10;0.90;;;21.00;25.70;;;;;;5075076;28;20459;-69
2024/02/24 09:58:37;;;;;;;2.30;1.03;;;20.40;25.20;;;;;;5074845;28;20441;-69
2024/02/24 10:01:04;;;;;;;2.20;0.80;;;19.80;24.90;;;;;;5073455;28;20485;-69
2024/02/24 10:03:32;;;;;;;2.70;1.00;;;19.30;26.60;;;;;;5074783;28;20448;-68
2024/02/24 10:06:02;;;;;;;2.30;0.90;;;18.90;26.20;;;;;;5075569;28;20452;-68
2024/02/24 10:08:31;;;;;;;3.33;1.30;;;18.40;26.20;;;;;;5075296;28;20446;-70
2024/02/24 10:10:58;;;;;;;5.10;0.90;;;18.00;26.80;;;;;;5074470;28;21006;-70
2024/02/24 10:13:25;;;;;;;4.97;2.47;;;17.50;26.90;;;;;;5074424;28;20446;-69
2024/02/24 10:15:52;;;;;;;7.97;3.33;;;17.10;27.40;;;;;;5074611;28;20479;-69
2024/02/24 10:18:21;;;;;;;17.07;8.20;;;16.70;27.80;;;;;;5074880;28;20431;-69
2024/02/24 10:20:51;;;;;;;83.47;36.43;;;16.40;28.50;;;;;;5073703;28;20495;-70
2024/02/24 10:23:18;;;;;;;47.13;20.27;;;16.10;28.80;;;;;;5074256;28;20430;-69
2024/02/24 10:25:48;;;;;;;54.67;25.60;;;16.00;29.40;;;;;;5073186;28;20430;-70
2024/02/24 10:28:17;;;;;;;21.77;8.80;;;15.90;30.00;;;;;;5074014;28;20440;-69
2024/02/24 10:30:46;;;;;;;32.87;13.50;;;16.10;30.20;;;;;;5072613;28;20566;-70
2024/02/24 10:33:14;;;;;;;11.10;5.80;;;16.60;30.90;;;;;;5081886;28;20451;-70
2024/02/24 10:35:42;;;;;;;8.97;4.20;;;17.00;30.30;;;;;;5090023;28;20984;-70
2024/02/24 10:38:09;;;;;;;15.07;11.20;;;17.40;30.20;;;;;;5094516;28;20435;-70
2024/02/24 10:40:38;;;;;;;4.50;3.47;;;17.80;29.60;;;;;;5077920;28;20439;-70
2024/02/24 10:43:07;;;;;;;2.53;1.17;;;18.00;28.60;;;;;;5074680;28;20566;-69
2024/02/24 10:45:34;;;;;;;4.50;1.57;;;18.40;28.80;;;;;;5074359;28;20849;-70
2024/02/24 10:48:01;;;;;;;2.20;0.93;;;19.00;28.30;;;;;;5073292;28;20447;-69
2024/02/24 10:50:29;;;;;;;1.90;0.70;;;19.80;27.40;;;;;;5085445;28;20436;-69
2024/02/24 10:53:01;;;;;;;2.43;0.90;;;20.10;26.30;;;;;;5093690;28;20914;-70
2024/02/24 10:55:29;;;;;;;2.70;0.77;;;20.80;26.60;;;;;;5087004;28;20763;-70
2024/02/24 10:57:57;;;;;;;4.57;1.20;;;21.40;26.70;;;;;;5077033;28;20435;-69
2024/02/24 11:00:35;;;;;;;2.17;0.70;;;22.00;25.80;;;;;;5080605;28;20511;-69
2024/02/24 11:03:05;;;;;;;2.00;0.70;;;22.50;26.10;;;;;;5077119;28;20889;-70
2024/02/24 11:05:34;;;;;;;2.00;0.80;;;23.10;25.30;;;;;;5094342;28;20435;-70
2024/02/24 11:08:02;;;;;;;2.20;0.90;;;23.30;24.80;;;;;;5075832;28;20439;-69
2024/02/24 11:10:34;;;;;;;2.20;1.00;;;23.50;23.90;;;;;;5073549;28;20436;-69
2024/02/24 11:13:02;;;;;;;2.97;1.10;;;23.50;23.70;;;;;;5076304;28;20431;-70
2024/02/24 11:15:31;;;;;;;2.30;0.70;;;23.30;23.10;;;;;;5093220;28;20514;-69
2024/02/24 11:17:58;;;;;;;2.10;0.60;;;22.90;22.20;;;;;;5093748;28;20917;-70
2024/02/24 11:20:58;;;;;;;2.00;0.80;;;22.30;23.20;;;;;;5078223;28;20464;-69
2024/02/24 11:23:26;;;;;;;2.43;0.80;;;21.80;23.80;;;;;;5050053;28;21049;-69
2024/02/24 11:26:31;;;;;;;2.37;0.90;;;21.20;24.10;;;;;;5050976;28;20447;-70
2024/02/24 11:29:02;;;;;;;2.37;0.80;;;20.50;24.30;;;;;;5065817;28;20440;-70
2024/02/24 11:31:33;;;;;;;2.20;0.70;;;19.90;24.80;;;;;;5067629;28;20515;-69
2024/02/24 11:34:05;;;;;;;2.27;0.80;;;19.20;25.60;;;;;;5090248;28;20882;-69
2024/02/24 11:36:34;;;;;;;2.40;0.97;;;18.70;25.80;;;;;;5073475;28;20980;-69
2024/02/24 11:39:04;;;;;;;2.53;0.80;;;18.10;25.90;;;;;;5072301;28;20811;-69
2024/02/24 11:41:40;;;;;;;2.17;0.80;;;17.70;26.90;;;;;;5064699;28;20468;-68
2024/02/24 11:44:08;;;;;;;2.27;0.90;;;17.30;27.00;;;;;;5072686;28;20424;-69
2024/02/24 11:46:36;;;;;;;2.43;1.00;;;16.90;28.20;;;;;;5082850;28;20542;-69
2024/02/24 11:49:04;;;;;;;2.10;0.80;;;16.90;29.10;;;;;;5092134;28;20797;-68
2024/02/24 11:51:30;;;;;;;2.60;0.90;;;17.30;29.40;;;;;;5065747;28;20480;-68
2024/02/24 11:53:57;;;;;;;2.80;0.90;;;18.00;28.30;;;;;;5072178;28;20435;-68
2024/02/24 11:56:26;;;;;;;2.47;1.00;;;18.60;28.30;;;;;;5073965;28;20470;-68
2024/02/24 11:58:56;;;;;;;3.50;0.87;;;19.30;27.20;;;;;;5073145;28;20432;-69
2024/02/24 12:01:24;;;;;;;2.17;0.87;;;19.90;27.30;;;;;;5071758;28;20870;-68
2024/02/24 12:03:55;;;;;;;2.70;0.67;;;20.40;26.50;;;;;;5071595;28;20436;-69
2024/02/24 12:06:25;;;;;;;2.20;0.90;;;20.60;25.40;;;;;;5071358;28;20427;-68
2024/02/24 12:08:52;;;;;;;2.30;0.80;;;20.40;25.50;;;;;;5071955;28;20444;-68
2024/02/24 12:11:21;;;;;;;2.30;0.87;;;20.10;25.40;;;;;;5072195;28;20973;-69
2024/02/24 12:13:48;;;;;;;2.03;0.70;;;19.80;25.70;;;;;;5072864;28;20877;-68
2024/02/24 12:16:16;;;;;;;3.53;1.00;;;19.50;25.80;;;;;;5072979;28;20462;-69
2024/02/24 12:18:45;;;;;;;3.90;0.80;;;19.20;26.50;;;;;;5072918;28;20781;-69
2024/02/24 12:21:14;;;;;;;2.37;0.77;;;19.20;26.80;;;;;;5072693;28;20520;-69
2024/02/24 12:23:42;;;;;;;1.93;0.67;;;19.30;27.20;;;;;;5071684;28;20515;-69
2024/02/24 12:26:17;;;;;;;2.77;0.70;;;19.50;26.90;;;;;;5072195;28;20439;-69
2024/02/24 12:28:47;;;;;;;2.30;0.80;;;19.90;26.00;;;;;;5072846;28;20474;-69
2024/02/24 12:31:15;;;;;;;7.00;0.70;;;20.20;25.60;;;;;;5049005;28;20476;-69
2024/02/24 12:33:43;;;;;;;5.40;1.03;;;20.20;24.70;;;;;;5065587;28;20439;-69
2024/02/24 12:36:14;;;;;;;1.93;0.60;;;19.80;24.80;;;;;;5064692;28;20425;-69
2024/02/24 12:38:42;;;;;;;1.90;0.60;;;19.30;25.20;;;;;;5066016;28;20459;-69
2024/02/24 12:41:12;;;;;;;1.90;0.70;;;18.80;25.80;;;;;;5067888;28;20515;-69
2024/02/24 12:43:40;;;;;;;2.00;0.80;;;18.30;25.90;;;;;;5071651;28;20435;-68
2024/02/24 12:46:07;;;;;;;2.90;1.10;;;17.80;26.30;;;;;;5070759;28;20926;-68
2024/02/24 12:48:35;;;;;;;3.37;0.97;;;17.50;27.20;;;;;;5072474;28;20534;-68
2024/02/24 12:51:03;;;;;;;2.07;0.83;;;17.20;27.70;;;;;;5070668;28;20907;-68
2024/02/24 12:53:32;;;;;;;2.10;1.00;;;17.20;28.20;;;;;;5068802;28;20446;-69
2024/02/24 12:56:01;;;;;;;2.40;0.80;;;17.50;28.70;;;;;;5062445;28;20443;-68